createdAt,value
2022-10-23T00:01:44.355Z,10.90
2022-10-23T00:04:20.937Z,10.90
2022-10-23T00:06:49.414Z,10.90
2022-10-23T00:09:19.499Z,10.80
2022-10-23T00:11:48.198Z,10.80
2022-10-23T00:14:24.167Z,10.80
2022-10-23T00:16:51.677Z,10.70
2022-10-23T00:19:19.287Z,10.70
2022-10-23T00:21:47.024Z,10.70
2022-10-23T00:24:17.709Z,10.70
2022-10-23T00:26:46.994Z,10.70
2022-10-23T00:29:14.355Z,10.70
2022-10-23T00:31:41.933Z,10.70
2022-10-23T00:34:11.191Z,10.70
2022-10-23T00:36:39.788Z,10.70
2022-10-23T00:39:07.418Z,10.60
2022-10-23T00:41:34.771Z,10.60
2022-10-23T00:44:07.108Z,10.60
2022-10-23T00:46:35.813Z,10.60
2022-10-23T00:49:04.963Z,10.60
2022-10-23T00:51:40.977Z,10.50
2022-10-23T00:54:29.165Z,10.50
2022-10-23T00:57:02.308Z,10.50
2022-10-23T00:59:30.449Z,10.40
2022-10-23T01:01:59.065Z,10.40
2022-10-23T01:04:29.252Z,10.40
2022-10-23T01:07:20.434Z,10.40
2022-10-23T01:09:59.370Z,10.40
2022-10-23T01:12:40.990Z,10.40
2022-10-23T01:15:09.389Z,10.50
2022-10-23T01:17:46.607Z,10.40
2022-10-23T01:20:25.959Z,10.40
2022-10-23T01:23:28.286Z,10.40
2022-10-23T01:26:14.584Z,10.40
2022-10-23T01:29:18.375Z,10.40
2022-10-23T01:32:17.937Z,10.40
2022-10-23T01:34:51.876Z,10.30
2022-10-23T01:37:27.593Z,10.30
2022-10-23T01:40:09.378Z,10.30
2022-10-23T01:42:42.393Z,10.20
2022-10-23T01:45:18.376Z,10.20
2022-10-23T01:47:49.518Z,10.20
2022-10-23T01:50:21.508Z,10.20
2022-10-23T01:52:53.869Z,10.00
2022-10-23T01:55:22.566Z,10.20
2022-10-23T01:57:52.030Z,10.40
2022-10-23T02:00:20.863Z,10.30
2022-10-23T02:02:56.078Z,10.30
2022-10-23T02:05:32.532Z,10.20
2022-10-23T02:08:05.662Z,10.20
2022-10-23T02:11:07.248Z,10.10
2022-10-23T02:13:43.019Z,10.30
2022-10-23T02:16:21.477Z,10.20
2022-10-23T02:19:12.504Z,10.10
2022-10-23T02:21:54.453Z,10.10
2022-10-23T02:24:48.196Z,10.10
2022-10-23T02:27:37.649Z,10.10
2022-10-23T02:30:16.584Z,10.20
2022-10-23T02:32:52.758Z,10.20
2022-10-23T02:35:24.828Z,10.20
2022-10-23T02:38:02.234Z,10.30
2022-10-23T02:40:41.301Z,10.20
2022-10-23T02:43:29.412Z,10.20
2022-10-23T02:46:17.498Z,10.10
2022-10-23T02:49:17.924Z,10.20
2022-10-23T02:51:58.238Z,10.20
2022-10-23T02:54:34.237Z,10.00
2022-10-23T02:57:37.873Z,10.10
2022-10-23T03:00:08.088Z,10.10
2022-10-23T03:02:44.991Z,10.00
2022-10-23T03:05:20.561Z,10.00
2022-10-23T03:07:49.175Z,10.10
2022-10-23T03:10:21.038Z,10.00
2022-10-23T03:12:53.913Z,10.10
2022-10-23T03:15:23.347Z,10.00
2022-10-23T03:17:51.961Z,10.20
2022-10-23T03:20:23.576Z,10.00
2022-10-23T03:22:52.257Z,9.90
2022-10-23T03:25:19.396Z,10.00
2022-10-23T03:27:46.804Z,9.90
2022-10-23T03:30:16.420Z,9.90
2022-10-23T03:32:44.585Z,10.10
2022-10-23T03:35:11.919Z,9.70
2022-10-23T03:37:40.581Z,9.90
2022-10-23T03:40:08.641Z,9.80
2022-10-23T03:42:36.103Z,9.90
2022-10-23T03:45:03.891Z,10.10
2022-10-23T03:47:32.236Z,10.00
2022-10-23T03:50:01.605Z,10.00
2022-10-23T03:52:31.123Z,10.00
2022-10-23T03:54:59.536Z,10.00
2022-10-23T03:57:26.715Z,10.00
2022-10-23T03:59:53.860Z,10.10
2022-10-23T04:02:21.164Z,10.00
2022-10-23T04:04:48.958Z,10.10
2022-10-23T04:07:16.471Z,10.10
2022-10-23T04:09:43.710Z,10.10
2022-10-23T04:12:15.980Z,10.10
2022-10-23T04:14:43.276Z,10.10
2022-10-23T04:17:10.517Z,10.10
2022-10-23T04:19:37.918Z,10.00
2022-10-23T04:22:05.109Z,10.00
2022-10-23T04:24:33.827Z,9.70
2022-10-23T04:27:02.068Z,10.00
2022-10-23T04:29:32.505Z,10.10
2022-10-23T04:31:59.613Z,10.00
2022-10-23T04:34:28.725Z,10.10
2022-10-23T04:36:56.932Z,10.10
2022-10-23T04:39:24.119Z,10.10
2022-10-23T04:41:51.473Z,10.10
2022-10-23T04:44:20.205Z,10.10
2022-10-23T04:46:47.431Z,10.20
2022-10-23T04:49:15.628Z,10.20
2022-10-23T04:52:05.921Z,10.20
2022-10-23T04:54:51.849Z,10.30
2022-10-23T04:57:38.038Z,10.10
2022-10-23T05:00:10.512Z,10.20
2022-10-23T05:02:47.730Z,10.20
2022-10-23T05:05:17.354Z,10.10
2022-10-23T05:07:56.789Z,10.10
2022-10-23T05:10:30.329Z,10.20
2022-10-23T05:13:12.607Z,10.20
2022-10-23T05:15:41.063Z,10.20
2022-10-23T05:18:31.516Z,10.20
2022-10-23T05:21:14.328Z,10.20
2022-10-23T05:23:45.251Z,10.20
2022-10-23T05:26:15.749Z,10.20
2022-10-23T05:28:47.041Z,10.20
2022-10-23T05:31:21.437Z,10.20
2022-10-23T05:33:52.091Z,10.10
2022-10-23T05:36:22.601Z,10.20
2022-10-23T05:38:58.645Z,10.20
2022-10-23T05:41:26.905Z,10.20
2022-10-23T05:43:58.042Z,10.20
2022-10-23T05:46:44.425Z,10.20
2022-10-23T05:49:31.864Z,10.20
2022-10-23T05:52:12.268Z,10.10
2022-10-23T05:54:52.380Z,10.20
2022-10-23T05:57:58.835Z,10.20
2022-10-23T06:00:46.287Z,10.10
2022-10-23T06:03:33.836Z,10.10
2022-10-23T06:06:01.792Z,10.10
2022-10-23T06:08:40.148Z,10.10
2022-10-23T06:11:13.215Z,10.10
2022-10-23T06:13:43.875Z,10.10
2022-10-23T06:16:16.591Z,10.10
2022-10-23T06:18:44.413Z,10.10
2022-10-23T06:21:15.704Z,10.10
2022-10-23T06:23:46.813Z,11.40
2022-10-23T06:26:31.892Z,10.20
2022-10-23T06:29:10.187Z,10.20
2022-10-23T06:31:38.981Z,10.00
2022-10-23T06:34:06.503Z,10.00
2022-10-23T06:36:33.866Z,10.00
2022-10-23T06:39:13.423Z,10.00
2022-10-23T06:42:01.191Z,10.10
2022-10-23T06:44:54.087Z,10.10
2022-10-23T06:47:41.392Z,10.10
2022-10-23T06:50:31.020Z,10.10
2022-10-23T06:53:00.232Z,10.20
2022-10-23T06:55:30.631Z,10.30
2022-10-23T06:57:58.446Z,10.20
2022-10-23T07:00:26.105Z,10.50
2022-10-23T07:02:54.643Z,10.60
2022-10-23T07:05:23.001Z,10.60
2022-10-23T07:07:50.224Z,10.60
2022-10-23T07:10:33.212Z,10.70
2022-10-23T07:13:01.505Z,10.70
2022-10-23T07:15:39.062Z,10.70
2022-10-23T07:18:14.779Z,10.80
2022-10-23T07:21:00.670Z,10.80
2022-10-23T07:23:30.003Z,10.90
2022-10-23T07:26:07.029Z,10.90
2022-10-23T07:28:35.327Z,11.00
2022-10-23T07:31:03.143Z,11.10
2022-10-23T07:33:52.474Z,11.20
2022-10-23T07:36:21.344Z,11.40
2022-10-23T07:38:48.796Z,11.30
2022-10-23T07:41:17.446Z,11.40
2022-10-23T07:43:45.403Z,11.40
2022-10-23T07:46:21.848Z,11.40
2022-10-23T07:48:49.510Z,11.50
2022-10-23T07:51:19.162Z,11.60
2022-10-23T07:53:51.262Z,11.60
2022-10-23T07:56:32.123Z,11.60
2022-10-23T07:59:19.849Z,11.70
2022-10-23T08:01:55.962Z,11.70
2022-10-23T08:04:28.830Z,11.80
2022-10-23T08:07:03.893Z,11.90
2022-10-23T08:09:38.496Z,11.90
2022-10-23T08:12:06.832Z,11.90
2022-10-23T08:14:35.922Z,12.00
2022-10-23T08:17:05.516Z,10.90
2022-10-23T08:19:51.657Z,11.40
2022-10-23T08:22:23.625Z,12.10
2022-10-23T08:24:51.125Z,12.10
2022-10-23T08:27:20.113Z,12.20
2022-10-23T08:29:49.745Z,12.30
2022-10-23T08:32:17.350Z,12.30
2022-10-23T08:35:05.147Z,12.30
2022-10-23T08:37:34.077Z,12.40
2022-10-23T08:40:01.692Z,12.40
2022-10-23T08:43:10.965Z,12.50
2022-10-23T08:45:51.244Z,12.60
2022-10-23T08:48:41.927Z,12.60
2022-10-23T08:51:40.181Z,12.60
2022-10-23T08:54:31.585Z,12.70
2022-10-23T08:57:04.075Z,12.80
2022-10-23T08:59:40.232Z,12.90
2022-10-23T09:02:32.437Z,12.90
2022-10-23T09:04:59.957Z,13.00
2022-10-23T09:08:07.782Z,13.00
2022-10-23T09:10:42.694Z,13.10
2022-10-23T09:13:31.637Z,13.20
2022-10-23T09:16:20.363Z,13.20
2022-10-23T09:18:49.786Z,13.30
2022-10-23T09:21:17.270Z,13.30
2022-10-23T09:23:44.953Z,13.40
2022-10-23T09:26:17.488Z,13.40
2022-10-23T09:28:55.458Z,13.50
2022-10-23T09:31:24.021Z,13.60
2022-10-23T09:34:01.427Z,13.60
2022-10-23T09:36:31.006Z,13.60
2022-10-23T09:39:00.417Z,13.60
2022-10-23T09:41:40.505Z,13.70
2022-10-23T09:44:07.670Z,13.80
2022-10-23T09:46:44.120Z,13.80
2022-10-23T09:49:22.118Z,13.90
2022-10-23T09:52:08.643Z,14.00
2022-10-23T09:54:57.608Z,14.10
2022-10-23T09:57:45.366Z,14.10
2022-10-23T10:00:20.329Z,14.10
2022-10-23T10:03:05.212Z,14.10
2022-10-23T10:05:37.383Z,14.20
2022-10-23T10:08:20.540Z,14.20
2022-10-23T10:10:55.152Z,14.30
2022-10-23T10:13:39.687Z,14.30
2022-10-23T10:16:19.896Z,14.40
2022-10-23T10:19:03.531Z,14.40
2022-10-23T10:21:56.821Z,14.50
2022-10-23T10:24:34.766Z,14.50
2022-10-23T10:27:11.094Z,14.50
2022-10-23T10:30:08.337Z,14.60
2022-10-23T10:32:59.266Z,14.70
2022-10-23T10:35:40.240Z,14.70
2022-10-23T10:38:28.519Z,14.80
2022-10-23T10:41:35.555Z,14.80
2022-10-23T10:44:30.783Z,14.90
2022-10-23T10:47:20.153Z,15.00
2022-10-23T10:50:11.777Z,15.00
2022-10-23T10:53:07.444Z,15.10
2022-10-23T10:55:44.963Z,15.10
2022-10-23T10:58:30.517Z,15.20
2022-10-23T11:01:00.787Z,15.20
2022-10-23T11:03:52.604Z,15.50
2022-10-23T11:06:26.403Z,15.40
2022-10-23T11:09:15.617Z,15.40
2022-10-23T11:11:42.185Z,15.40
2022-10-23T11:14:27.001Z,15.50
2022-10-23T11:17:06.127Z,15.50
2022-10-23T11:19:53.626Z,15.60
2022-10-23T11:22:47.414Z,15.60
2022-10-23T11:25:44.862Z,15.60
2022-10-23T11:28:18.390Z,15.70
2022-10-23T11:30:55.190Z,15.70
2022-10-23T11:33:34.827Z,15.70
2022-10-23T11:36:20.715Z,15.80
2022-10-23T11:38:50.980Z,15.80
2022-10-23T11:41:27.465Z,15.90
2022-10-23T11:44:05.712Z,15.90
2022-10-23T11:46:36.940Z,16.00
2022-10-23T11:49:09.455Z,16.00
2022-10-23T11:51:42.804Z,16.10
2022-10-23T11:54:14.759Z,16.10
2022-10-23T11:56:55.578Z,16.20
2022-10-23T11:59:34.823Z,16.20
2022-10-23T12:02:18.185Z,16.30
2022-10-23T12:04:52.445Z,16.40
2022-10-23T12:07:37.496Z,16.40
2022-10-23T12:10:06.299Z,16.40
2022-10-23T12:12:41.209Z,16.40
2022-10-23T12:15:15.816Z,16.40
2022-10-23T12:17:45.369Z,16.40
2022-10-23T12:20:51.938Z,16.40
2022-10-23T12:23:28.441Z,16.40
2022-10-23T12:26:20.858Z,16.40
2022-10-23T12:28:58.805Z,16.30
2022-10-23T12:31:28.119Z,16.30
2022-10-23T12:34:25.280Z,16.40
2022-10-23T12:37:15.888Z,16.30
2022-10-23T12:39:58.074Z,16.30
2022-10-23T12:42:28.877Z,16.30
2022-10-23T12:45:17.366Z,16.30
2022-10-23T12:47:52.929Z,16.40
2022-10-23T12:50:28.766Z,16.30
2022-10-23T12:53:08.741Z,16.30
2022-10-23T12:58:35.918Z,16.30
2022-10-23T13:01:33.018Z,16.30
2022-10-23T13:04:21.569Z,16.30
2022-10-23T13:06:54.784Z,16.30
2022-10-23T13:09:42.449Z,16.20
2022-10-23T13:15:14.583Z,16.00
2022-10-23T13:17:46.060Z,16.20
2022-10-23T13:20:32.228Z,16.20
2022-10-23T13:23:32.837Z,16.20
2022-10-23T13:26:34.117Z,16.10
2022-10-23T13:29:23.542Z,16.20
2022-10-23T13:31:59.310Z,16.30
2022-10-23T13:34:32.203Z,16.20
2022-10-23T13:41:55.928Z,16.20
2022-10-23T13:45:25.922Z,16.10
2022-10-23T13:52:36.307Z,16.20
2022-10-23T13:55:29.090Z,16.10
2022-10-23T13:58:01.876Z,16.10
2022-10-23T14:00:43.317Z,16.00
2022-10-23T14:03:24.183Z,16.10
2022-10-23T14:06:44.361Z,16.00
2022-10-23T14:09:19.492Z,16.00
2022-10-23T14:11:49.850Z,15.90
2022-10-23T14:14:25.888Z,15.90
2022-10-23T14:16:55.678Z,16.00
2022-10-23T14:19:24.144Z,16.00
2022-10-23T14:21:52.707Z,15.90
2022-10-23T14:24:20.385Z,15.90
2022-10-23T14:27:12.611Z,16.00
2022-10-23T14:29:40.765Z,15.90
2022-10-23T14:32:08.416Z,16.00
2022-10-23T14:34:40.753Z,16.00
2022-10-23T14:37:14.498Z,16.00
2022-10-23T14:39:50.189Z,15.90
2022-10-23T14:42:41.169Z,15.90
2022-10-23T14:45:21.342Z,15.90
2022-10-23T14:48:02.427Z,16.00
2022-10-23T14:50:44.327Z,16.00
2022-10-23T14:53:12.197Z,16.00
2022-10-23T14:55:45.173Z,16.10
2022-10-23T14:58:49.871Z,16.20
2022-10-23T15:01:27.096Z,16.60
2022-10-23T15:03:59.878Z,16.50
2022-10-23T15:06:33.158Z,16.60
2022-10-23T15:09:00.689Z,16.50
2022-10-23T15:11:43.366Z,16.50
2022-10-23T15:14:13.570Z,16.40
2022-10-23T15:16:59.032Z,16.50
2022-10-23T15:25:07.771Z,16.40
2022-10-23T15:28:05.378Z,16.30
2022-10-23T15:30:44.508Z,16.30
2022-10-23T15:33:23.204Z,16.30
2022-10-23T15:35:58.238Z,16.30
2022-10-23T15:38:26.304Z,16.30
2022-10-23T15:41:00.646Z,16.20
2022-10-23T15:43:28.132Z,16.20
2022-10-23T15:46:07.091Z,16.10
2022-10-23T15:48:36.858Z,16.10
2022-10-23T15:51:12.169Z,16.00
2022-10-23T15:53:40.266Z,16.00
2022-10-23T15:56:08.918Z,16.00
2022-10-23T15:58:39.613Z,16.00
2022-10-23T16:01:10.001Z,15.90
2022-10-23T16:03:40.687Z,15.80
2022-10-23T16:06:14.917Z,15.80
2022-10-23T16:09:00.018Z,15.70
2022-10-23T16:11:34.396Z,15.70
2022-10-23T16:14:10.471Z,15.70
2022-10-23T16:16:38.239Z,15.60
2022-10-23T16:19:17.045Z,15.60
2022-10-23T16:22:17.509Z,15.60
2022-10-23T16:25:09.639Z,15.50
2022-10-23T16:27:38.395Z,15.50
2022-10-23T16:30:24.236Z,15.50
2022-10-23T16:32:54.895Z,15.50
2022-10-23T16:35:37.448Z,15.40
2022-10-23T16:38:24.628Z,15.40
2022-10-23T16:40:55.349Z,15.40
2022-10-23T16:43:42.190Z,15.40
2022-10-23T16:46:36.208Z,15.40
2022-10-23T16:49:16.342Z,15.40
2022-10-23T16:51:51.535Z,15.40
2022-10-23T16:54:28.164Z,15.40
2022-10-23T16:57:20.057Z,15.40
2022-10-23T16:59:52.294Z,15.40
2022-10-23T17:02:46.686Z,15.40
2022-10-23T17:05:31.441Z,15.40
2022-10-23T17:08:20.362Z,15.30
2022-10-23T17:10:48.392Z,15.40
2022-10-23T17:13:16.073Z,15.40
2022-10-23T17:15:43.468Z,15.40
2022-10-23T17:18:21.159Z,15.40
2022-10-23T17:20:58.334Z,15.40
2022-10-23T17:23:28.452Z,15.40
2022-10-23T17:26:03.634Z,15.30
2022-10-23T17:28:32.391Z,15.30
2022-10-23T17:31:00.038Z,15.30
2022-10-23T17:33:34.890Z,15.30
2022-10-23T17:36:07.121Z,15.30
2022-10-23T17:38:38.106Z,15.20
2022-10-23T17:41:09.224Z,15.30
2022-10-23T17:43:41.651Z,15.30
2022-10-23T17:46:14.902Z,15.20
2022-10-23T17:49:03.669Z,15.20
2022-10-23T17:51:41.487Z,15.20
2022-10-23T17:54:14.680Z,15.20
2022-10-23T17:56:46.438Z,15.20
2022-10-23T17:59:17.789Z,15.20
2022-10-23T18:01:48.930Z,15.20
2022-10-23T18:04:22.913Z,15.10
2022-10-23T18:06:53.667Z,15.10
2022-10-23T18:09:31.186Z,15.10
2022-10-23T18:12:18.124Z,15.10
2022-10-23T18:14:51.133Z,15.10
2022-10-23T18:17:19.753Z,15.20
2022-10-23T18:19:51.008Z,15.20
2022-10-23T18:24:46.187Z,15.20
2022-10-23T18:27:15.695Z,15.20
2022-10-23T18:29:51.177Z,15.20
2022-10-23T18:32:19.606Z,15.20
2022-10-23T18:34:47.320Z,15.20
2022-10-23T18:37:20.825Z,15.20
2022-10-23T18:39:48.119Z,15.10
2022-10-23T18:42:18.995Z,15.10
2022-10-23T18:44:50.274Z,15.10
2022-10-23T18:47:20.959Z,15.10
2022-10-23T18:49:49.572Z,15.10
2022-10-23T18:52:20.980Z,15.10
2022-10-23T18:54:50.821Z,15.10
2022-10-23T18:57:22.641Z,15.00
2022-10-23T18:59:51.137Z,15.00
2022-10-23T19:02:19.174Z,15.00
2022-10-23T19:04:50.277Z,15.00
2022-10-23T19:07:17.770Z,15.00
2022-10-23T19:09:46.009Z,15.00
2022-10-23T19:14:42.198Z,15.00
2022-10-23T19:17:33.396Z,15.00
2022-10-23T19:20:15.278Z,15.00
2022-10-23T19:22:46.671Z,14.90
2022-10-23T19:25:18.502Z,14.90
2022-10-23T19:27:47.934Z,14.90
2022-10-23T19:30:19.353Z,14.90
2022-10-23T19:32:49.918Z,14.70
2022-10-23T19:35:19.536Z,14.90
2022-10-23T19:37:49.780Z,15.10
2022-10-23T19:40:18.428Z,15.00
2022-10-23T19:42:45.941Z,15.00
2022-10-23T19:45:23.415Z,15.10
2022-10-23T19:47:53.686Z,15.10
2022-10-23T19:50:22.318Z,15.10
2022-10-23T19:52:49.799Z,15.20
2022-10-23T19:55:20.490Z,15.20
2022-10-23T19:57:48.957Z,15.20
2022-10-23T20:00:19.532Z,15.20
2022-10-23T20:02:55.327Z,15.30
2022-10-23T20:05:23.138Z,15.30
2022-10-23T20:07:51.518Z,15.40
2022-10-23T20:10:21.834Z,15.40
2022-10-23T20:12:56.611Z,15.40
2022-10-23T20:15:29.742Z,15.50
2022-10-23T20:17:58.749Z,15.60
2022-10-23T20:20:26.040Z,15.60
2022-10-23T20:22:56.703Z,15.70
2022-10-23T20:25:24.469Z,15.80
2022-10-23T20:27:51.932Z,15.90
2022-10-23T20:30:19.926Z,15.90
2022-10-23T20:33:00.093Z,16.00
2022-10-23T20:35:27.766Z,15.80
2022-10-23T20:37:56.325Z,15.80
2022-10-23T20:40:23.642Z,15.80
2022-10-23T20:42:50.811Z,15.80
2022-10-23T20:45:18.301Z,15.80
2022-10-23T20:47:47.059Z,15.70
2022-10-23T20:50:14.512Z,15.50
2022-10-23T20:52:41.776Z,15.70
2022-10-23T20:55:09.423Z,15.60
2022-10-23T20:57:36.681Z,15.60
2022-10-23T21:00:05.770Z,15.60
2022-10-23T21:02:33.257Z,15.60
2022-10-23T21:05:00.573Z,15.60
2022-10-23T21:07:31.535Z,15.60
2022-10-23T21:09:59.169Z,15.60
2022-10-23T21:12:27.226Z,15.50
2022-10-23T21:14:58.123Z,15.50
2022-10-23T21:17:25.896Z,15.50
2022-10-23T21:19:53.298Z,15.50
2022-10-23T21:22:21.902Z,15.40
2022-10-23T21:24:50.192Z,15.40
2022-10-23T21:27:18.777Z,15.40
2022-10-23T21:29:46.470Z,15.30
2022-10-23T21:32:13.877Z,15.20
2022-10-23T21:34:41.224Z,15.20
2022-10-23T21:37:16.065Z,15.20
2022-10-23T21:39:44.288Z,15.20
2022-10-23T21:42:17.754Z,15.10
2022-10-23T21:44:45.386Z,15.10
2022-10-23T21:47:13.257Z,15.00
2022-10-23T21:49:40.480Z,15.00
2022-10-23T21:52:08.380Z,15.00
2022-10-23T21:54:36.040Z,15.00
2022-10-23T21:57:03.698Z,14.90
2022-10-23T21:59:35.920Z,14.90
2022-10-23T22:02:04.209Z,14.90
2022-10-23T22:04:34.635Z,14.90
2022-10-23T22:07:03.302Z,14.80
2022-10-23T22:09:31.841Z,14.80
2022-10-23T22:12:01.008Z,14.80
2022-10-23T22:14:31.380Z,14.80
2022-10-23T22:16:58.820Z,14.70
2022-10-23T22:19:26.860Z,14.70
2022-10-23T22:21:54.444Z,14.70
2022-10-23T22:24:27.453Z,14.70
2022-10-23T22:26:56.748Z,14.70
2022-10-23T22:29:27.493Z,14.60
2022-10-23T22:31:56.972Z,15.10
2022-10-23T22:37:18.124Z,14.60
2022-10-23T22:39:46.084Z,14.50
2022-10-23T22:42:18.058Z,14.40
2022-10-23T22:44:46.369Z,14.40
2022-10-23T22:47:15.061Z,14.30
2022-10-23T22:49:42.829Z,14.30
2022-10-23T22:52:10.080Z,14.20
2022-10-23T22:54:39.310Z,14.20
2022-10-23T22:57:07.287Z,14.20
2022-10-23T22:59:43.063Z,14.30
2022-10-23T23:02:11.832Z,14.20
2022-10-23T23:04:45.467Z,14.20
2022-10-23T23:07:14.121Z,14.20
2022-10-23T23:09:44.631Z,14.30
2022-10-23T23:12:14.322Z,14.20
2022-10-23T23:14:42.949Z,14.20
2022-10-23T23:17:10.870Z,14.20
2022-10-23T23:19:38.916Z,14.20
2022-10-23T23:22:07.198Z,14.20
2022-10-23T23:24:35.550Z,14.20
2022-10-23T23:27:03.204Z,14.20
2022-10-23T23:29:31.189Z,14.20
2022-10-23T23:31:58.445Z,14.20
2022-10-23T23:34:25.773Z,14.20
2022-10-23T23:36:54.445Z,14.20
2022-10-23T23:39:22.977Z,14.20
2022-10-23T23:41:51.315Z,14.20
2022-10-23T23:44:19.837Z,14.20
2022-10-23T23:46:47.027Z,14.20
2022-10-23T23:49:14.520Z,14.10
2022-10-23T23:51:42.360Z,14.10
2022-10-23T23:54:09.836Z,14.20
2022-10-23T23:56:37.397Z,14.20
2022-10-23T23:59:07.779Z,14.20
